Time;durP1;ratioP1;P1;durP2;ratioP2;P2;SDS_P1;SDS_P2;PMS_P1;PMS_P2;Temp;Humidity;BMP_temperature;BMP_pressure;BME280_temperature;BME280_humidity;BME280_pressure;Samples;Min_cycle;Max_cycle;Signal;HPM_P1;HPM_P2
2021/07/15 00:02:18;;;;;;;7.18;2.38;;;16.70;99.90;;;;;;12403363;28;1094407;-43
2021/07/15 00:08:23;;;;;;;8.90;2.30;;;16.70;99.90;;;;;;12434830;28;20136;-42
2021/07/15 00:14:25;;;;;;;11.88;2.42;;;17.00;99.90;;;;;;12424359;28;20050;-40
2021/07/15 00:20:28;;;;;;;10.77;2.35;;;17.00;99.90;;;;;;12443183;28;20383;-41
2021/07/15 00:26:30;;;;;;;10.95;2.40;;;16.90;99.90;;;;;;12436571;28;20104;-41
2021/07/15 00:32:32;;;;;;;7.78;2.13;;;16.90;99.90;;;;;;12442399;28;20123;-40
2021/07/15 00:38:35;;;;;;;11.25;2.10;;;17.00;99.90;;;;;;12438638;28;20054;-42
2021/07/15 00:44:37;;;;;;;14.02;1.92;;;17.00;99.90;;;;;;12436984;28;20054;-41
2021/07/15 00:50:40;;;;;;;10.15;2.30;;;16.80;99.90;;;;;;12435034;28;20064;-40
2021/07/15 00:56:41;;;;;;;7.05;1.83;;;16.70;99.90;;;;;;12433341;28;20054;-42
2021/07/15 01:02:44;;;;;;;11.48;2.72;;;16.80;99.90;;;;;;12452025;28;20053;-40
2021/07/15 01:08:46;;;;;;;6.40;1.77;;;16.90;99.90;;;;;;12444471;28;20081;-41
2021/07/15 01:15:11;;;;;;;8.75;2.40;;;16.80;99.90;;;;;;12443233;28;20046;-41
2021/07/15 01:21:47;;;;;;;7.20;1.80;;;16.70;99.90;;;;;;12449653;28;20042;-41
2021/07/15 01:27:56;;;;;;;6.60;1.70;;;16.80;99.90;;;;;;12441482;28;20456;-41
2021/07/15 01:33:58;;;;;;;3.47;1.35;;;16.70;99.90;;;;;;12449138;28;20103;-41
2021/07/15 01:40:03;;;;;;;7.38;1.42;;;16.70;99.90;;;;;;12447103;28;20587;-40
2021/07/15 01:46:06;;;;;;;9.35;2.00;;;16.80;99.90;;;;;;12444169;28;20185;-41
2021/07/15 01:52:09;;;;;;;9.93;2.10;;;16.90;99.90;;;;;;12441051;28;20073;-42
2021/07/15 01:58:11;;;;;;;12.23;2.10;;;16.90;99.90;;;;;;12436255;28;20050;-42
2021/07/15 02:04:14;;;;;;;6.25;2.03;;;16.80;99.90;;;;;;12446621;28;20467;-40
2021/07/15 02:10:21;;;;;;;4.83;1.83;;;16.80;99.90;;;;;;12444291;28;20053;-41
2021/07/15 02:16:23;;;;;;;8.95;1.95;;;16.80;99.90;;;;;;12445065;28;20053;-40
2021/07/15 02:22:25;;;;;;;7.22;1.98;;;16.80;99.90;;;;;;12444926;28;20050;-41
2021/07/15 02:28:27;;;;;;;7.10;2.00;;;16.90;99.90;;;;;;12441518;28;20053;-41
2021/07/15 02:34:32;;;;;;;9.43;1.90;;;16.80;99.90;;;;;;12437942;28;20049;-41
2021/07/15 02:40:34;;;;;;;11.63;1.95;;;17.00;99.90;;;;;;12441091;28;20115;-42
2021/07/15 02:46:37;;;;;;;11.05;1.85;;;17.10;99.90;;;;;;12441689;28;20053;-44
2021/07/15 02:52:39;;;;;;;17.85;3.20;;;16.70;99.90;;;;;;12446298;28;20045;-40
2021/07/15 02:59:01;;;;;;;11.05;2.35;;;16.90;99.90;;;;;;12444225;28;20491;-41
2021/07/15 03:05:08;;;;;;;7.55;2.00;;;16.60;99.90;;;;;;12442367;28;20696;-41
2021/07/15 03:11:11;;;;;;;4.07;1.75;;;16.40;99.90;;;;;;12440241;28;20049;-41
2021/07/15 03:17:15;;;;;;;11.73;2.05;;;16.70;99.90;;;;;;12444839;28;20445;-40
2021/07/15 03:23:19;;;;;;;6.45;2.15;;;16.70;99.90;;;;;;12441436;28;20049;-41
2021/07/15 03:29:22;;;;;;;7.40;1.67;;;16.60;99.90;;;;;;12448032;28;20046;-40
2021/07/15 03:35:26;;;;;;;10.35;2.15;;;16.40;99.90;;;;;;12443897;28;20057;-41
2021/07/15 03:41:29;;;;;;;8.82;1.80;;;16.50;99.90;;;;;;12443192;28;20326;-40
2021/07/15 03:47:31;;;;;;;12.20;2.40;;;16.40;99.90;;;;;;12444194;28;20054;-40
2021/07/15 03:53:35;;;;;;;11.23;2.08;;;16.50;99.90;;;;;;12440487;28;20368;-43
2021/07/15 03:59:44;;;;;;;7.30;1.90;;;16.40;99.90;;;;;;12441925;28;20057;-40
2021/07/15 04:05:49;;;;;;;6.88;2.00;;;16.40;99.90;;;;;;12440649;28;20486;-42
2021/07/15 04:11:52;;;;;;;5.38;3.00;;;16.40;99.90;;;;;;12440469;28;20128;-40
2021/07/15 04:17:57;;;;;;;13.88;3.30;;;16.30;99.90;;;;;;12442019;28;20088;-40
2021/07/15 04:24:00;;;;;;;7.95;3.08;;;16.30;99.90;;;;;;12439850;28;20477;-41
2021/07/15 04:30:07;;;;;;;12.50;3.28;;;16.30;99.90;;;;;;12444109;28;20053;-40
2021/07/15 04:36:09;;;;;;;7.80;2.72;;;16.30;99.90;;;;;;12450644;28;20110;-41
2021/07/15 04:42:13;;;;;;;8.30;3.13;;;16.40;99.90;;;;;;12452094;28;20106;-43
2021/07/15 04:48:18;;;;;;;;;;;16.50;99.90;;;;;;12452104;28;20541;-48
2021/07/15 04:54:21;;;;;;;5.13;2.47;;;16.60;99.90;;;;;;12449889;28;19921;-43
2021/07/15 05:00:25;;;;;;;7.40;2.67;;;16.50;99.90;;;;;;12453481;28;20096;-43
2021/07/15 05:06:27;;;;;;;8.57;3.28;;;16.60;99.90;;;;;;12453071;28;20050;-44
2021/07/15 05:12:29;;;;;;;5.18;2.80;;;16.50;99.90;;;;;;12449645;28;20087;-43
2021/07/15 05:18:31;;;;;;;6.55;2.75;;;16.60;99.90;;;;;;12448846;28;20148;-43
2021/07/15 05:24:33;;;;;;;9.98;2.50;;;16.70;99.90;;;;;;12444941;28;20094;-43
2021/07/15 05:30:35;;;;;;;6.93;2.20;;;16.70;99.90;;;;;;12448713;28;20057;-43
2021/07/15 05:36:37;;;;;;;6.55;2.33;;;16.80;99.90;;;;;;12446554;28;20045;-44
2021/07/15 05:42:39;;;;;;;4.88;2.00;;;16.90;99.90;;;;;;12444228;28;20072;-43
2021/07/15 05:48:41;;;;;;;5.63;2.05;;;17.10;99.90;;;;;;12443522;28;20119;-43
2021/07/15 05:54:46;;;;;;;5.68;2.08;;;17.30;99.90;;;;;;12440933;28;20118;-43
2021/07/15 06:00:48;;;;;;;6.55;2.33;;;17.30;99.90;;;;;;12440832;28;20141;-43
2021/07/15 06:06:50;;;;;;;7.88;2.45;;;17.40;99.90;;;;;;12444848;28;20087;-44
2021/07/15 06:12:51;;;;;;;6.82;2.60;;;17.60;99.90;;;;;;12444821;28;20148;-43
2021/07/15 06:18:53;;;;;;;2.90;1.80;;;17.50;99.90;;;;;;12449267;28;20107;-45
2021/07/15 06:24:55;;;;;;;4.07;2.00;;;17.70;99.90;;;;;;12448324;28;20494;-44
2021/07/15 06:31:00;;;;;;;8.82;2.45;;;17.70;99.90;;;;;;12443527;28;20547;-42
2021/07/15 06:37:08;;;;;;;8.98;3.15;;;18.00;99.90;;;;;;12446840;28;20153;-43
2021/07/15 06:43:10;;;;;;;7.32;2.92;;;18.10;99.90;;;;;;12446363;28;20469;-43
2021/07/15 06:49:12;;;;;;;5.00;2.22;;;18.00;99.90;;;;;;12437859;28;20045;-43
2021/07/15 06:55:14;;;;;;;5.50;2.50;;;18.20;99.90;;;;;;12442816;28;20386;-45
2021/07/15 07:01:16;;;;;;;3.20;1.60;;;18.30;99.90;;;;;;12439909;28;20058;-43
2021/07/15 07:07:18;;;;;;;4.22;1.90;;;18.20;99.90;;;;;;12444820;28;20090;-44
2021/07/15 07:13:20;;;;;;;5.57;2.00;;;18.40;99.90;;;;;;12443227;28;20042;-44
2021/07/15 07:19:22;;;;;;;3.30;1.75;;;18.60;99.90;;;;;;12446130;28;20049;-43
2021/07/15 07:25:24;;;;;;;4.03;1.08;;;18.80;99.90;;;;;;12442544;28;20045;-43
2021/07/15 07:31:27;;;;;;;2.97;1.10;;;18.80;99.90;;;;;;12443949;28;20045;-43
2021/07/15 07:37:29;;;;;;;6.43;1.40;;;18.70;99.90;;;;;;12447891;28;20058;-43
2021/07/15 07:43:33;;;;;;;3.80;1.20;;;18.80;99.90;;;;;;12440353;28;20139;-43
2021/07/15 07:49:35;;;;;;;2.25;1.00;;;19.00;99.90;;;;;;12440113;28;20049;-44
2021/07/15 07:55:37;;;;;;;5.50;1.10;;;18.90;99.90;;;;;;12436703;28;20089;-43
2021/07/15 08:01:42;;;;;;;1.30;0.90;;;19.10;99.90;;;;;;12441926;28;20061;-43
2021/07/15 08:07:44;;;;;;;2.33;1.20;;;19.10;99.90;;;;;;12450438;28;20080;-49
2021/07/15 08:13:46;;;;;;;2.83;1.20;;;19.00;99.90;;;;;;12453770;28;20050;-43
2021/07/15 08:19:48;;;;;;;2.05;1.10;;;19.10;99.90;;;;;;12449201;28;20065;-44
2021/07/15 08:25:50;;;;;;;7.03;1.13;;;19.30;99.90;;;;;;12451780;28;20057;-43
2021/07/15 08:31:52;;;;;;;1.73;1.10;;;19.40;99.90;;;;;;12452991;28;20599;-43
2021/07/15 08:37:55;;;;;;;1.90;1.00;;;19.70;99.90;;;;;;12451746;28;20053;-43
2021/07/15 08:43:57;;;;;;;7.00;1.30;;;19.50;99.90;;;;;;12447605;28;20080;-46
2021/07/15 08:49:59;;;;;;;1.27;0.90;;;19.20;99.90;;;;;;12450286;28;20494;-45
2021/07/15 09:02:22;;;;;;;4.40;1.00;;;19.40;99.90;;;;;;12453505;28;20460;-43
2021/07/15 09:08:24;;;;;;;2.90;0.98;;;19.40;99.90;;;;;;12453021;28;20045;-44
2021/07/15 09:14:52;;;;;;;4.07;0.90;;;19.60;99.90;;;;;;12454362;28;20042;-43
2021/07/15 09:20:54;;;;;;;2.28;1.08;;;19.80;99.90;;;;;;12448918;28;20132;-43
2021/07/15 09:26:55;;;;;;;2.72;0.90;;;19.90;99.90;;;;;;12450629;28;20564;-44
2021/07/15 09:33:03;;;;;;;1.90;0.90;;;20.00;99.90;;;;;;12449524;28;20049;-43
2021/07/15 09:39:16;;;;;;;1.80;0.90;;;20.20;99.90;;;;;;12450166;28;20253;-46
2021/07/15 09:45:28;;;;;;;1.77;0.80;;;20.30;99.90;;;;;;12448891;28;20072;-46
2021/07/15 09:51:42;;;;;;;4.10;0.88;;;20.40;99.90;;;;;;12446713;28;20133;-43
2021/07/15 09:57:44;;;;;;;1.75;0.85;;;20.60;99.90;;;;;;12446408;28;20137;-44
2021/07/15 10:03:54;;;;;;;4.28;1.00;;;21.00;99.90;;;;;;12450671;28;20564;-45
2021/07/15 10:10:19;;;;;;;3.17;1.10;;;21.30;99.90;;;;;;12447175;28;20054;-45
2021/07/15 10:16:21;;;;;;;2.33;1.15;;;21.20;99.90;;;;;;12450576;28;20413;-44
2021/07/15 10:22:30;;;;;;;5.00;1.42;;;21.00;99.90;;;;;;12446286;28;20056;-43
2021/07/15 10:28:32;;;;;;;3.08;1.05;;;21.50;99.90;;;;;;12446745;28;20083;-46
2021/07/15 10:34:34;;;;;;;4.18;0.90;;;21.60;99.90;;;;;;12447918;28;20712;-43
2021/07/15 10:40:37;;;;;;;4.00;1.08;;;22.10;99.90;;;;;;12446789;28;20072;-45
2021/07/15 10:46:42;;;;;;;2.80;0.80;;;21.90;99.90;;;;;;12451944;28;20061;-47
2021/07/15 10:53:06;;;;;;;3.45;1.00;;;22.50;99.90;;;;;;12439206;28;20054;-46
2021/07/15 10:59:28;;;;;;;2.45;0.73;;;22.40;99.90;;;;;;12449263;28;20380;-44
2021/07/15 11:05:31;;;;;;;1.50;0.80;;;22.80;99.90;;;;;;12447698;28;20060;-44
2021/07/15 11:11:40;;;;;;;3.13;0.68;;;23.20;99.90;;;;;;12441528;28;20054;-41
2021/07/15 11:17:51;;;;;;;5.32;1.20;;;23.60;99.90;;;;;;12443637;28;20175;-46
2021/07/15 11:24:08;;;;;;;2.08;0.68;;;23.70;99.90;;;;;;12450475;28;20132;-43
2021/07/15 11:30:41;;;;;;;2.85;0.70;;;23.50;99.90;;;;;;12446278;28;20053;-43
2021/07/15 11:36:43;;;;;;;0.80;0.60;;;23.20;99.90;;;;;;12441205;28;20133;-43
2021/07/15 11:42:46;;;;;;;1.65;0.80;;;22.90;99.90;;;;;;12447234;28;20658;-42
2021/07/15 11:48:58;;;;;;;3.70;0.90;;;23.50;99.90;;;;;;12442213;28;20173;-44
2021/07/15 11:55:11;;;;;;;2.30;0.80;;;23.80;99.90;;;;;;12443469;28;20085;-43
2021/07/15 12:01:20;;;;;;;2.63;1.00;;;24.10;99.90;;;;;;12444119;28;20115;-44
2021/07/15 12:07:22;;;;;;;3.53;0.93;;;24.90;99.90;;;;;;12443733;28;20137;-44
2021/07/15 12:13:24;;;;;;;3.20;0.90;;;25.30;99.90;;;;;;12444238;28;20046;-45
2021/07/15 12:19:26;;;;;;;4.03;0.90;;;24.60;99.90;;;;;;12444746;28;20710;-43
2021/07/15 12:25:34;;;;;;;0.95;0.77;;;23.90;99.90;;;;;;12442655;28;20103;-43
2021/07/15 12:31:36;;;;;;;2.58;0.90;;;23.30;99.90;;;;;;12447302;28;20037;-44
2021/07/15 12:37:38;;;;;;;1.08;0.60;;;23.50;99.90;;;;;;12447112;28;20054;-43
2021/07/15 12:43:53;;;;;;;1.17;0.60;;;23.80;99.90;;;;;;12446444;28;20398;-46
2021/07/15 12:49:55;;;;;;;1.48;0.82;;;23.50;99.90;;;;;;12446595;28;20042;-43
2021/07/15 12:55:59;;;;;;;2.10;0.73;;;23.90;99.90;;;;;;12446739;28;20049;-43
2021/07/15 13:02:01;;;;;;;;;;;24.20;99.90;;;;;;12449183;28;20057;-46
2021/07/15 13:08:06;;;;;;;2.83;0.70;;;24.10;99.90;;;;;;12451892;28;19925;-44
2021/07/15 13:14:15;;;;;;;4.03;0.80;;;24.00;99.90;;;;;;12450406;28;20079;-44
2021/07/15 13:20:22;;;;;;;4.22;0.75;;;23.90;99.90;;;;;;12444584;28;20061;-43
2021/07/15 13:26:24;;;;;;;1.65;0.85;;;23.80;99.90;;;;;;12448993;28;20095;-41
2021/07/15 13:32:30;;;;;;;2.60;0.88;;;23.50;99.90;;;;;;12452447;28;20049;-43
2021/07/15 13:38:46;;;;;;;4.03;0.88;;;23.30;99.90;;;;;;12443613;28;20106;-43
2021/07/15 13:44:54;;;;;;;2.83;1.10;;;23.50;99.90;;;;;;12445300;28;20411;-41
2021/07/15 13:51:04;;;;;;;6.13;1.02;;;24.10;99.90;;;;;;12445162;28;20185;-41
2021/07/15 13:57:10;;;;;;;2.22;0.70;;;24.80;99.90;;;;;;12441771;28;20053;-41
2021/07/15 14:03:15;;;;;;;2.42;0.82;;;25.70;99.90;;;;;;12440505;28;20077;-43
2021/07/15 14:09:20;;;;;;;3.08;0.60;;;26.00;99.90;;;;;;12441638;28;20053;-41
2021/07/15 14:15:23;;;;;;;1.40;0.60;;;25.60;99.90;;;;;;12439134;28;20045;-42
2021/07/15 14:21:27;;;;;;;2.45;0.70;;;25.00;99.90;;;;;;12446276;28;20049;-43
2021/07/15 14:27:29;;;;;;;5.53;0.77;;;24.60;99.90;;;;;;12443755;28;20095;-42
2021/07/15 14:33:31;;;;;;;7.07;0.90;;;24.40;99.90;;;;;;12447267;28;20071;-41
2021/07/15 14:39:33;;;;;;;1.70;0.90;;;23.90;99.90;;;;;;12444426;28;20625;-41
2021/07/15 14:45:35;;;;;;;3.75;0.60;;;23.90;99.90;;;;;;12445659;28;20493;-43
2021/07/15 14:51:39;;;;;;;1.38;0.60;;;24.90;99.90;;;;;;12441402;28;20148;-41
2021/07/15 14:57:41;;;;;;;2.25;0.60;;;25.40;99.90;;;;;;12445308;28;20049;-41
2021/07/15 15:03:43;;;;;;;2.67;0.93;;;25.60;99.90;;;;;;12443178;28;20049;-42
2021/07/15 15:09:45;;;;;;;2.38;0.60;;;25.30;99.90;;;;;;12441817;28;20091;-44
2021/07/15 15:15:47;;;;;;;3.25;0.80;;;24.80;99.90;;;;;;12434723;28;20046;-41
2021/07/15 15:21:49;;;;;;;2.88;0.90;;;24.70;99.90;;;;;;12443906;28;21586;-40
2021/07/15 15:27:52;;;;;;;2.80;0.68;;;24.70;99.90;;;;;;12448986;28;20042;-44
2021/07/15 15:33:54;;;;;;;3.63;0.80;;;25.10;99.90;;;;;;12443325;28;20757;-41
2021/07/15 15:39:56;;;;;;;1.13;0.60;;;25.60;99.90;;;;;;12438108;28;20046;-42
2021/07/15 15:45:57;;;;;;;1.73;0.90;;;26.00;99.90;;;;;;12441038;28;20111;-40
2021/07/15 15:52:00;;;;;;;3.33;0.70;;;26.50;99.90;;;;;;12438741;28;20095;-41
2021/07/15 15:58:05;;;;;;;2.92;0.68;;;26.40;99.90;;;;;;12445771;28;20111;-41
2021/07/15 16:04:07;;;;;;;2.78;0.70;;;26.30;99.90;;;;;;12443822;28;20076;-41
2021/07/15 16:10:15;;;;;;;1.35;0.80;;;26.30;99.90;;;;;;12441055;28;20118;-41
2021/07/15 16:16:16;;;;;;;4.38;0.77;;;26.20;99.90;;;;;;12443348;28;20049;-41
2021/07/15 16:22:18;;;;;;;5.45;0.85;;;25.60;99.90;;;;;;12442305;28;20053;-41
2021/07/15 16:28:21;;;;;;;2.70;0.70;;;25.50;99.90;;;;;;12445111;28;20064;-41
2021/07/15 16:34:23;;;;;;;1.98;0.90;;;25.80;99.90;;;;;;12450863;28;20091;-43
2021/07/15 16:40:26;;;;;;;1.15;0.80;;;26.40;99.90;;;;;;12453527;28;20099;-40
2021/07/15 16:46:28;;;;;;;3.53;1.00;;;26.50;99.90;;;;;;12441834;28;20054;-41
2021/07/15 16:52:32;;;;;;;1.27;0.90;;;26.00;99.90;;;;;;12443007;28;20050;-41
2021/07/15 16:58:34;;;;;;;2.13;0.80;;;25.90;99.90;;;;;;12446032;28;20053;-41
2021/07/15 17:04:37;;;;;;;2.73;1.30;;;25.00;99.90;;;;;;12446911;28;20053;-42
2021/07/15 17:10:39;;;;;;;5.10;1.00;;;24.50;99.90;;;;;;12447295;28;20049;-41
2021/07/15 17:16:41;;;;;;;1.47;1.07;;;24.20;99.90;;;;;;12445990;28;20058;-46
2021/07/15 17:22:43;;;;;;;1.77;1.10;;;23.90;99.90;;;;;;12450030;28;20103;-47
2021/07/15 17:28:48;;;;;;;2.28;1.10;;;23.90;99.90;;;;;;12448340;28;20053;-41
2021/07/15 17:34:49;;;;;;;2.70;1.20;;;23.70;99.90;;;;;;12445842;28;20329;-42
2021/07/15 17:40:51;;;;;;;2.08;1.17;;;23.80;99.90;;;;;;12448323;28;20100;-42
2021/07/15 17:46:53;;;;;;;2.72;1.35;;;23.90;99.90;;;;;;12448911;28;20046;-41
2021/07/15 17:52:56;;;;;;;3.35;1.45;;;23.90;99.90;;;;;;12445457;28;20038;-43
2021/07/15 17:58:58;;;;;;;3.67;1.50;;;24.20;99.90;;;;;;12441471;28;20053;-41
2021/07/15 18:05:02;;;;;;;5.45;3.80;;;24.10;99.90;;;;;;12442314;28;20363;-41
2021/07/15 18:11:05;;;;;;;9.82;5.68;;;24.10;99.90;;;;;;12447873;28;20049;-41
2021/07/15 18:17:08;;;;;;;13.75;9.70;;;24.20;99.90;;;;;;12443459;28;20060;-41
2021/07/15 18:23:12;;;;;;;17.45;12.90;;;24.10;99.90;;;;;;12445736;28;20124;-40
2021/07/15 18:29:14;;;;;;;30.83;21.70;;;23.50;99.90;;;;;;12445362;28;20087;-44
2021/07/15 18:35:17;;;;;;;29.90;22.55;;;23.20;99.90;;;;;;12442724;28;20046;-41
2021/07/15 18:41:19;;;;;;;35.60;24.85;;;22.90;99.90;;;;;;12443021;28;20042;-42
2021/07/15 18:47:20;;;;;;;30.90;25.65;;;22.50;99.90;;;;;;12446764;28;20524;-45
2021/07/15 18:53:22;;;;;;;34.28;27.23;;;22.40;99.90;;;;;;12443291;28;20796;-40
2021/07/15 18:59:24;;;;;;;35.75;26.42;;;22.20;99.90;;;;;;12446332;28;20444;-40
2021/07/15 19:05:27;;;;;;;39.25;26.63;;;22.10;99.90;;;;;;12443275;28;20438;-44
2021/07/15 19:11:29;;;;;;;38.92;27.60;;;22.00;99.90;;;;;;12441779;28;20045;-40
2021/07/15 19:17:31;;;;;;;40.92;27.02;;;21.90;99.90;;;;;;12441861;28;20046;-42
2021/07/15 19:23:33;;;;;;;38.78;26.25;;;21.80;99.90;;;;;;12438313;28;20506;-41
2021/07/15 19:29:35;;;;;;;39.42;26.35;;;21.60;99.90;;;;;;12444493;28;20100;-41
2021/07/15 19:35:37;;;;;;;39.53;26.13;;;21.50;99.90;;;;;;12442673;28;20033;-42
2021/07/15 19:41:40;;;;;;;36.67;25.95;;;21.30;99.90;;;;;;12441334;28;20042;-41
2021/07/15 19:47:43;;;;;;;37.47;26.95;;;21.20;99.90;;;;;;12445097;28;20037;-44
2021/07/15 19:53:45;;;;;;;49.00;28.08;;;21.10;99.90;;;;;;12441362;28;20091;-43
2021/07/15 19:59:47;;;;;;;41.53;26.63;;;20.90;99.90;;;;;;12443954;28;20061;-40
2021/07/15 20:05:52;;;;;;;39.83;27.25;;;20.90;99.90;;;;;;12447035;28;20050;-41
2021/07/15 20:11:55;;;;;;;37.63;26.48;;;20.80;99.90;;;;;;12452522;28;20107;-42
2021/07/15 20:18:01;;;;;;;37.92;26.90;;;20.60;99.90;;;;;;12452415;28;20057;-40
2021/07/15 20:24:03;;;;;;;33.72;25.02;;;20.50;99.90;;;;;;12450465;28;20576;-40
2021/07/15 20:30:07;;;;;;;35.58;24.70;;;20.50;99.90;;;;;;12450420;28;20724;-41
2021/07/15 20:36:08;;;;;;;;;;;20.40;99.90;;;;;;12452278;28;20053;-40
2021/07/15 20:42:10;;;;;;;36.20;22.50;;;20.20;99.90;;;;;;12448830;28;19926;-41
2021/07/15 20:48:12;;;;;;;35.38;23.27;;;20.10;99.90;;;;;;12456316;28;20049;-40
2021/07/15 20:54:17;;;;;;;32.40;22.17;;;19.90;99.90;;;;;;12450309;28;20050;-40
2021/07/15 21:00:21;;;;;;;30.02;19.58;;;19.90;99.90;;;;;;12446281;28;20115;-40
2021/07/15 21:06:23;;;;;;;27.67;17.10;;;19.70;99.90;;;;;;12448798;28;20053;-40
2021/07/15 21:12:25;;;;;;;27.23;16.77;;;19.70;99.90;;;;;;12451903;28;20076;-41
2021/07/15 21:18:26;;;;;;;25.02;15.40;;;19.70;99.90;;;;;;12452888;28;20050;-43
2021/07/15 21:24:28;;;;;;;21.58;13.45;;;19.60;99.90;;;;;;12451276;28;20099;-40
2021/07/15 21:30:30;;;;;;;22.42;12.45;;;19.40;99.90;;;;;;12451362;28;20050;-40
2021/07/15 21:36:32;;;;;;;21.38;12.38;;;19.40;99.90;;;;;;12452352;28;20111;-43
2021/07/15 21:42:34;;;;;;;18.35;11.65;;;19.30;99.90;;;;;;12452403;28;20045;-40
2021/07/15 21:48:36;;;;;;;22.33;12.95;;;19.30;99.90;;;;;;12450314;28;20450;-41
2021/07/15 21:54:38;;;;;;;22.92;11.60;;;19.20;99.90;;;;;;12446049;28;20586;-41
2021/07/15 22:00:40;;;;;;;23.25;11.70;;;19.20;99.90;;;;;;12450642;28;20076;-40
2021/07/15 22:06:42;;;;;;;22.60;11.20;;;19.20;99.90;;;;;;12448166;28;20120;-42
2021/07/15 22:12:43;;;;;;;25.77;12.18;;;19.10;99.90;;;;;;12448947;28;21233;-40
2021/07/15 22:18:45;;;;;;;22.73;11.05;;;19.10;99.90;;;;;;12445533;28;20054;-41
2021/07/15 22:24:47;;;;;;;19.70;10.05;;;19.00;99.90;;;;;;12449021;28;20046;-41
2021/07/15 22:30:49;;;;;;;19.05;11.57;;;19.00;99.90;;;;;;12445255;28;20057;-40
2021/07/15 22:36:52;;;;;;;29.70;11.20;;;19.10;99.90;;;;;;12446120;28;20050;-40
2021/07/15 22:42:54;;;;;;;26.93;11.93;;;19.00;99.90;;;;;;12442538;28;20049;-42
2021/07/15 22:48:56;;;;;;;19.42;9.98;;;19.00;99.90;;;;;;12451121;28;20046;-42
2021/07/15 22:54:58;;;;;;;27.70;10.68;;;18.90;99.90;;;;;;12445766;28;20504;-41
2021/07/15 23:01:00;;;;;;;25.42;9.95;;;18.80;99.90;;;;;;12444603;28;20096;-41
2021/07/15 23:07:02;;;;;;;25.65;10.43;;;18.80;99.90;;;;;;12444531;28;20413;-41
2021/07/15 23:13:08;;;;;;;29.30;11.13;;;18.80;99.90;;;;;;12446797;28;20407;-40
2021/07/15 23:19:10;;;;;;;25.33;11.20;;;18.60;99.90;;;;;;12443290;28;20050;-41
2021/07/15 23:25:13;;;;;;;27.92;11.13;;;18.60;99.90;;;;;;12443017;28;20049;-40
2021/07/15 23:31:15;;;;;;;28.40;10.47;;;18.60;99.90;;;;;;12448028;28;20049;-40
2021/07/15 23:37:17;;;;;;;24.50;10.68;;;18.40;99.90;;;;;;12445902;28;20115;-41
2021/07/15 23:43:19;;;;;;;30.00;10.75;;;18.50;99.90;;;;;;12444023;28;20513;-40
2021/07/15 23:49:21;;;;;;;36.50;10.20;;;18.60;99.90;;;;;;12442393;28;20045;-41
2021/07/15 23:55:23;;;;;;;24.20;9.55;;;18.50;99.90;;;;;;12444410;28;20107;-41
